Time;durP1;ratioP1;P1;durP2;ratioP2;P2;SDS_P1;SDS_P2;PMS_P1;PMS_P2;Temp;Humidity;BMP_temperature;BMP_pressure;BME280_temperature;BME280_humidity;BME280_pressure;Samples;Min_cycle;Max_cycle;Signal;HPM_P1;HPM_P2
2023/08/23 00:00:01;;;;;;;109.80;2.87;;;27.10;43.70;;;;;;5039676;28;20407;-78
2023/08/23 00:02:27;;;;;;;110.17;3.10;;;27.40;42.60;;;;;;5039837;28;20453;-78
2023/08/23 00:04:52;;;;;;;110.20;3.20;;;27.40;43.00;;;;;;5039648;28;20435;-78
2023/08/23 00:07:18;;;;;;;111.50;3.50;;;27.20;44.40;;;;;;5039611;28;20173;-77
2023/08/23 00:09:44;;;;;;;110.17;3.07;;;27.10;44.20;;;;;;5040469;28;20176;-79
2023/08/23 00:12:09;;;;;;;111.30;3.83;;;27.10;43.60;;;;;;5039791;28;20226;-78
2023/08/23 00:14:35;;;;;;;110.37;3.30;;;27.30;41.90;;;;;;5039661;28;20168;-78
2023/08/23 00:17:01;;;;;;;110.37;3.27;;;27.20;42.70;;;;;;5039349;28;20184;-78
2023/08/23 00:19:26;;;;;;;109.97;3.07;;;27.00;44.20;;;;;;5022558;28;20180;-77
2023/08/23 00:21:52;;;;;;;110.27;3.13;;;27.10;44.70;;;;;;5021627;28;20242;-78
2023/08/23 00:24:19;;;;;;;110.30;3.20;;;27.00;43.50;;;;;;5021873;28;20263;-79
2023/08/23 00:26:45;;;;;;;111.40;3.57;;;26.90;43.00;;;;;;5038493;28;20200;-77
2023/08/23 00:29:11;;;;;;;109.90;2.90;;;26.90;44.20;;;;;;5021999;28;20771;-78
2023/08/23 00:31:36;;;;;;;110.70;3.27;;;26.90;44.40;;;;;;5039242;28;20415;-78
2023/08/23 00:34:02;;;;;;;110.57;3.13;;;26.80;44.80;;;;;;5039641;28;20601;-78
2023/08/23 00:36:28;;;;;;;110.47;3.10;;;26.80;44.10;;;;;;5021629;28;20282;-78
2023/08/23 00:38:55;;;;;;;111.83;3.60;;;26.70;44.00;;;;;;5021456;28;20275;-78
2023/08/23 00:41:21;;;;;;;110.90;3.33;;;26.80;44.20;;;;;;5039068;28;20443;-79
2023/08/23 00:43:47;;;;;;;110.70;3.37;;;26.90;43.30;;;;;;5039477;28;20411;-78
2023/08/23 00:46:13;;;;;;;110.10;2.67;;;26.90;43.80;;;;;;5038804;28;20460;-79
2023/08/23 00:48:39;;;;;;;110.63;3.07;;;26.70;44.20;;;;;;5039017;28;20245;-77
2023/08/23 00:51:05;;;;;;;111.23;3.07;;;26.70;43.70;;;;;;5038201;28;20459;-78
2023/08/23 00:53:31;;;;;;;110.17;3.00;;;26.70;43.70;;;;;;5038822;28;20627;-79
2023/08/23 00:55:59;;;;;;;110.27;2.93;;;26.80;43.40;;;;;;5019023;28;20212;-80
2023/08/23 00:58:24;;;;;;;110.57;3.07;;;26.80;42.40;;;;;;5019801;28;20265;-79
2023/08/23 01:00:51;;;;;;;111.20;3.57;;;26.80;42.50;;;;;;5020093;28;20415;-79
2023/08/23 01:03:16;;;;;;;110.97;3.50;;;26.60;42.20;;;;;;5037687;28;20180;-78
2023/08/23 01:06:00;;;;;;;110.57;3.17;;;26.70;43.30;;;;;;5037693;28;20797;-78
2023/08/23 01:08:54;;;;;;;110.10;2.97;;;26.70;43.00;;;;;;5046061;28;20303;-77
2023/08/23 01:11:45;;;;;;;110.60;3.30;;;26.60;43.00;;;;;;4996067;28;20448;-78
2023/08/23 01:14:34;;;;;;;110.57;3.17;;;26.60;43.30;;;;;;5010302;28;20424;-78
2023/08/23 01:17:01;;;;;;;110.70;3.40;;;26.50;42.90;;;;;;5009781;28;20832;-79
2023/08/23 01:19:35;;;;;;;110.27;2.80;;;26.50;42.70;;;;;;5006797;28;20423;-78
2023/08/23 01:22:05;;;;;;;110.70;3.30;;;26.60;41.00;;;;;;5006871;28;20431;-78
2023/08/23 01:24:31;;;;;;;111.27;3.60;;;26.80;40.60;;;;;;5006984;28;20417;-76
2023/08/23 01:26:57;;;;;;;110.97;3.40;;;26.80;40.40;;;;;;5005936;28;20468;-78
2023/08/23 01:29:22;;;;;;;110.53;3.57;;;26.70;40.80;;;;;;5003983;28;20427;-77
2023/08/23 01:31:53;;;;;;;110.93;3.70;;;26.60;41.20;;;;;;5005909;28;20185;-79
2023/08/23 01:34:34;;;;;;;110.30;3.00;;;26.90;40.40;;;;;;5011823;28;20181;-78
2023/08/23 01:37:03;;;;;;;110.50;3.20;;;26.80;41.50;;;;;;5012587;28;20512;-79
2023/08/23 01:39:30;;;;;;;110.80;3.47;;;26.80;40.90;;;;;;5011046;28;20497;-78
2023/08/23 01:41:56;;;;;;;110.37;3.10;;;26.70;41.30;;;;;;5012276;28;20424;-78
2023/08/23 01:44:22;;;;;;;111.30;3.63;;;26.50;42.60;;;;;;5012098;28;20516;-78
2023/08/23 01:46:47;;;;;;;110.57;3.40;;;26.30;42.50;;;;;;5018611;28;20471;-79
2023/08/23 01:49:13;;;;;;;111.00;3.43;;;26.30;43.10;;;;;;5011507;28;20186;-78
2023/08/23 01:51:38;;;;;;;110.40;3.07;;;26.30;43.00;;;;;;5006904;28;20222;-77
2023/08/23 01:54:04;;;;;;;111.50;3.37;;;26.20;43.10;;;;;;5009833;28;20177;-79
2023/08/23 01:56:30;;;;;;;110.70;3.53;;;26.10;43.70;;;;;;5016227;28;20691;-78
2023/08/23 01:58:55;;;;;;;110.43;3.13;;;26.30;42.60;;;;;;5001014;28;20212;-77
2023/08/23 02:01:21;;;;;;;110.30;3.20;;;26.20;42.80;;;;;;5015263;28;20170;-77
2023/08/23 02:03:46;;;;;;;111.40;3.33;;;26.30;42.60;;;;;;5009132;28;20212;-78
2023/08/23 02:06:12;;;;;;;109.97;2.70;;;26.20;42.20;;;;;;5015720;28;20205;-78
2023/08/23 02:08:38;;;;;;;110.47;3.27;;;26.20;42.40;;;;;;5011938;28;20185;-78
2023/08/23 02:11:04;;;;;;;110.37;3.13;;;26.10;42.20;;;;;;5011489;28;20580;-79
2023/08/23 02:13:29;;;;;;;110.80;3.30;;;26.00;42.40;;;;;;5028384;28;20441;-75
2023/08/23 02:15:55;;;;;;;110.97;3.23;;;26.10;42.00;;;;;;5008529;28;20201;-76
2023/08/23 02:18:21;;;;;;;110.07;2.90;;;25.90;42.40;;;;;;5002748;28;20683;-78
2023/08/23 02:20:55;;;;;;;110.40;3.30;;;26.00;43.20;;;;;;5014308;28;20219;-79
2023/08/23 02:23:20;;;;;;;111.20;3.50;;;26.10;42.30;;;;;;5017478;28;20428;-78
2023/08/23 02:25:46;;;;;;;110.87;3.20;;;26.10;42.70;;;;;;5000153;28;20465;-77
2023/08/23 02:28:11;;;;;;;110.20;3.00;;;25.90;43.60;;;;;;5008084;28;20211;-77
2023/08/23 02:30:38;;;;;;;110.47;3.10;;;25.90;43.10;;;;;;5009148;28;20275;-79
2023/08/23 02:33:03;;;;;;;110.67;3.13;;;25.90;43.90;;;;;;5012405;28;20218;-79
2023/08/23 02:35:29;;;;;;;110.80;3.50;;;25.90;43.80;;;;;;5017252;28;20559;-78
2023/08/23 02:37:54;;;;;;;110.20;2.90;;;25.80;44.70;;;;;;5017792;28;20263;-78
2023/08/23 02:40:20;;;;;;;110.40;3.07;;;25.80;44.80;;;;;;5018938;28;20192;-78
2023/08/23 02:42:46;;;;;;;110.50;3.20;;;25.80;45.10;;;;;;5007371;28;20185;-78
2023/08/23 02:45:11;;;;;;;110.60;2.90;;;25.70;45.50;;;;;;5009394;28;20216;-80
2023/08/23 02:47:37;;;;;;;111.17;3.60;;;25.60;45.80;;;;;;5008386;28;20196;-79
2023/08/23 02:50:03;;;;;;;110.60;3.17;;;25.60;45.50;;;;;;5012564;28;20189;-79
2023/08/23 02:52:28;;;;;;;111.37;3.57;;;25.60;45.70;;;;;;5010089;28;20189;-78
2023/08/23 02:54:54;;;;;;;111.27;3.50;;;25.50;45.30;;;;;;5016605;28;20212;-78
2023/08/23 02:57:19;;;;;;;111.97;3.50;;;25.40;44.80;;;;;;5016145;28;20208;-78
2023/08/23 02:59:45;;;;;;;110.83;3.40;;;25.40;44.50;;;;;;5015325;28;20247;-77
2023/08/23 03:02:10;;;;;;;111.17;3.37;;;25.50;45.30;;;;;;5016189;28;20672;-77
2023/08/23 03:04:36;;;;;;;110.73;2.97;;;25.40;45.00;;;;;;5015991;28;20204;-81
2023/08/23 03:07:01;;;;;;;110.87;3.37;;;25.40;44.70;;;;;;5017295;28;20182;-78
2023/08/23 03:09:27;;;;;;;112.30;3.60;;;25.40;45.40;;;;;;5016030;28;20184;-77
2023/08/23 03:11:52;;;;;;;111.80;3.07;;;25.40;45.40;;;;;;5018329;28;20267;-78
2023/08/23 03:14:18;;;;;;;112.43;4.00;;;25.40;45.30;;;;;;5013544;28;20726;-78
2023/08/23 03:16:43;;;;;;;111.17;3.13;;;25.50;45.20;;;;;;5013155;28;20224;-78
2023/08/23 03:19:09;;;;;;;110.67;3.10;;;25.30;46.50;;;;;;5023196;28;20208;-78
2023/08/23 03:21:34;;;;;;;110.80;3.20;;;25.30;45.40;;;;;;5033071;28;20198;-79
2023/08/23 03:24:00;;;;;;;111.03;3.10;;;25.20;45.80;;;;;;5032153;28;20372;-78
2023/08/23 03:26:26;;;;;;;111.30;3.10;;;25.30;45.20;;;;;;5031130;28;20212;-78
2023/08/23 03:28:51;;;;;;;111.87;3.30;;;25.40;45.10;;;;;;5014880;28;20243;-78
2023/08/23 03:31:17;;;;;;;110.80;3.03;;;25.40;44.40;;;;;;5041058;28;20180;-76
2023/08/23 03:33:43;;;;;;;111.27;3.47;;;25.40;44.70;;;;;;5040914;28;20186;-78
2023/08/23 03:36:08;;;;;;;110.67;3.20;;;25.40;44.80;;;;;;5040264;28;20199;-79
2023/08/23 03:38:34;;;;;;;110.57;3.03;;;25.40;44.10;;;;;;5041255;28;20203;-78
2023/08/23 03:40:59;;;;;;;110.67;2.90;;;25.30;44.40;;;;;;5041497;28;20602;-78
2023/08/23 03:43:25;;;;;;;112.50;3.27;;;25.20;45.40;;;;;;5043053;28;20172;-79
2023/08/23 03:45:50;;;;;;;110.60;3.00;;;25.40;44.10;;;;;;5049184;28;20196;-79
2023/08/23 03:48:17;;;;;;;112.20;3.30;;;25.60;43.10;;;;;;5049187;28;20176;-79
2023/08/23 03:50:43;;;;;;;111.00;3.23;;;25.70;42.30;;;;;;5040584;28;20209;-78
2023/08/23 03:53:08;;;;;;;111.30;3.17;;;25.80;42.60;;;;;;5002798;28;20430;-78
2023/08/23 03:55:36;;;;;;;111.13;3.03;;;25.80;42.50;;;;;;5015852;28;20914;-78
2023/08/23 03:58:05;;;;;;;112.10;3.60;;;26.00;41.50;;;;;;5015216;28;20212;-78
2023/08/23 04:00:30;;;;;;;110.83;3.13;;;26.00;42.00;;;;;;5040146;28;20438;-77
2023/08/23 04:02:56;;;;;;;110.90;3.27;;;25.80;43.50;;;;;;5028157;28;20431;-78
2023/08/23 04:05:21;;;;;;;111.13;3.40;;;25.80;43.50;;;;;;5053183;28;20206;-76
2023/08/23 04:07:47;;;;;;;110.47;2.90;;;25.80;43.60;;;;;;5034919;28;20252;-77
2023/08/23 04:10:12;;;;;;;111.43;3.70;;;25.60;43.90;;;;;;5034838;28;20187;-79
2023/08/23 04:12:38;;;;;;;110.77;3.20;;;25.40;44.80;;;;;;5023407;28;20271;-79
2023/08/23 04:15:04;;;;;;;110.40;3.03;;;25.40;44.10;;;;;;5024893;28;20215;-80
2023/08/23 04:17:30;;;;;;;110.67;3.27;;;25.50;44.30;;;;;;5028436;28;20217;-79
2023/08/23 04:19:55;;;;;;;111.50;3.80;;;25.50;43.90;;;;;;5034735;28;20440;-79
2023/08/23 04:22:21;;;;;;;110.67;3.10;;;25.40;44.10;;;;;;5013876;28;20185;-79
2023/08/23 04:24:47;;;;;;;110.60;3.20;;;25.40;45.30;;;;;;5027013;28;20788;-78
2023/08/23 04:27:13;;;;;;;110.70;3.30;;;25.30;45.00;;;;;;5015562;28;20179;-79
2023/08/23 04:29:38;;;;;;;110.70;3.27;;;25.30;45.50;;;;;;5036392;28;20460;-79
2023/08/23 04:32:09;;;;;;;112.90;3.80;;;25.30;44.90;;;;;;5023380;28;20195;-79
2023/08/23 04:34:35;;;;;;;111.23;3.30;;;25.40;44.60;;;;;;5031302;28;20227;-79
2023/08/23 04:37:00;;;;;;;111.17;3.33;;;25.20;44.60;;;;;;5039495;28;20415;-78
2023/08/23 04:39:26;;;;;;;111.27;3.40;;;25.10;45.20;;;;;;5039659;28;20221;-80
2023/08/23 04:41:52;;;;;;;110.80;3.07;;;25.00;45.40;;;;;;5039598;28;20171;-79
2023/08/23 04:44:17;;;;;;;111.10;3.40;;;24.90;46.20;;;;;;5039040;28;20564;-79
2023/08/23 04:46:44;;;;;;;111.27;3.50;;;25.00;46.30;;;;;;5021497;28;20203;-77
2023/08/23 04:49:10;;;;;;;110.83;3.07;;;25.10;45.70;;;;;;5039684;28;20177;-79
2023/08/23 04:51:35;;;;;;;112.60;3.73;;;25.10;46.30;;;;;;5039302;28;20418;-79
2023/08/23 04:54:01;;;;;;;110.97;3.70;;;25.10;45.20;;;;;;5021719;28;20777;-78
2023/08/23 04:56:26;;;;;;;110.80;3.10;;;25.20;44.20;;;;;;5020618;28;20199;-80
2023/08/23 04:58:53;;;;;;;111.20;3.30;;;25.40;43.00;;;;;;5015072;28;20269;-79
2023/08/23 05:01:18;;;;;;;110.80;3.20;;;25.40;43.40;;;;;;5027038;28;20191;-79
2023/08/23 05:03:44;;;;;;;111.17;3.30;;;25.30;44.50;;;;;;5025912;28;20415;-79
2023/08/23 05:06:09;;;;;;;110.67;3.30;;;25.40;44.10;;;;;;5014383;28;20202;-78
2023/08/23 05:08:36;;;;;;;110.63;3.10;;;25.80;44.80;;;;;;5029748;28;20183;-79
2023/08/23 05:11:02;;;;;;;112.97;3.83;;;25.70;43.00;;;;;;5015682;28;20520;-78
2023/08/23 05:13:27;;;;;;;110.30;2.70;;;25.70;41.50;;;;;;5012682;28;20452;-78
2023/08/23 05:15:54;;;;;;;110.80;3.10;;;25.90;40.60;;;;;;5028766;28;20198;-78
2023/08/23 05:18:21;;;;;;;110.97;3.40;;;26.00;41.00;;;;;;5035145;28;20220;-78
2023/08/23 05:20:55;;;;;;;110.90;3.30;;;25.70;43.00;;;;;;5037371;28;20445;-78
2023/08/23 05:23:23;;;;;;;111.50;3.57;;;25.70;43.50;;;;;;5036088;28;20439;-78
2023/08/23 05:25:51;;;;;;;110.97;3.33;;;25.60;43.80;;;;;;5025452;28;20969;-78
2023/08/23 05:28:20;;;;;;;110.77;3.27;;;25.40;44.60;;;;;;5036444;28;20997;-78
2023/08/23 05:30:46;;;;;;;111.70;3.67;;;25.30;45.50;;;;;;5035791;28;20478;-78
2023/08/23 05:33:12;;;;;;;110.80;3.57;;;25.30;44.50;;;;;;5033858;28;20449;-77
2023/08/23 05:35:41;;;;;;;111.10;3.10;;;25.00;45.80;;;;;;5035965;28;20435;-78
2023/08/23 05:38:08;;;;;;;111.93;3.53;;;25.30;45.90;;;;;;5038341;28;21029;-77
2023/08/23 05:40:33;;;;;;;112.10;3.83;;;25.40;45.40;;;;;;5041164;28;20415;-77
2023/08/23 05:42:59;;;;;;;112.17;3.60;;;25.40;45.50;;;;;;5037824;28;20438;-77
2023/08/23 05:45:26;;;;;;;112.27;4.00;;;25.80;45.20;;;;;;5035542;28;20718;-77
2023/08/23 05:47:54;;;;;;;110.67;3.60;;;25.80;43.30;;;;;;5036116;28;20385;-77
2023/08/23 05:50:20;;;;;;;111.13;3.90;;;25.40;44.00;;;;;;5032803;28;20415;-77
2023/08/23 05:52:46;;;;;;;111.07;3.23;;;25.30;45.60;;;;;;5036745;28;20411;-77
2023/08/23 05:55:11;;;;;;;111.27;3.53;;;25.80;43.40;;;;;;5035418;28;20433;-78
2023/08/23 05:57:37;;;;;;;110.73;3.13;;;25.70;43.40;;;;;;5035788;28;20206;-78
2023/08/23 06:00:03;;;;;;;110.50;3.10;;;25.80;44.20;;;;;;5031773;28;20652;-78
2023/08/23 06:02:29;;;;;;;110.40;3.13;;;25.90;44.00;;;;;;5030768;28;20263;-78
2023/08/23 06:04:54;;;;;;;110.37;3.03;;;26.00;42.60;;;;;;5035221;28;20514;-78
2023/08/23 06:07:20;;;;;;;110.37;3.00;;;26.10;43.70;;;;;;5038836;28;20176;-78
2023/08/23 06:09:45;;;;;;;111.23;3.63;;;26.10;43.50;;;;;;5037534;28;20169;-77
2023/08/23 06:12:11;;;;;;;111.60;3.87;;;25.50;43.40;;;;;;5038535;28;20703;-77
2023/08/23 06:14:37;;;;;;;110.30;3.07;;;25.00;45.70;;;;;;5038072;28;20532;-77
2023/08/23 06:17:02;;;;;;;111.40;3.57;;;24.80;46.50;;;;;;5038437;28;20584;-77
2023/08/23 06:19:28;;;;;;;114.40;4.93;;;24.90;46.40;;;;;;5038059;28;20287;-77
2023/08/23 06:21:53;;;;;;;110.97;3.60;;;24.80;46.80;;;;;;5038401;28;20164;-78
2023/08/23 06:24:19;;;;;;;110.47;3.27;;;25.30;46.50;;;;;;5038186;28;20168;-77
2023/08/23 06:26:46;;;;;;;110.60;3.30;;;25.60;44.30;;;;;;5036150;28;20211;-77
2023/08/23 06:29:12;;;;;;;109.97;2.93;;;25.60;44.50;;;;;;5038261;28;20644;-78
2023/08/23 06:31:38;;;;;;;110.67;3.20;;;25.70;44.00;;;;;;5038253;28;20417;-77
2023/08/23 06:34:04;;;;;;;111.33;3.70;;;25.60;42.30;;;;;;5038109;28;20184;-77
2023/08/23 06:36:29;;;;;;;110.70;3.60;;;25.50;43.00;;;;;;5037806;28;20192;-78
2023/08/23 06:38:55;;;;;;;113.97;4.37;;;25.30;44.00;;;;;;5036830;28;20208;-77
2023/08/23 06:41:20;;;;;;;110.10;3.10;;;25.70;43.40;;;;;;5037961;28;20168;-77
2023/08/23 06:43:47;;;;;;;110.27;3.30;;;25.80;42.50;;;;;;5038123;28;20604;-78
2023/08/23 06:46:13;;;;;;;111.70;3.80;;;26.50;40.20;;;;;;5037656;28;20672;-77
2023/08/23 06:48:39;;;;;;;111.33;3.80;;;27.10;40.50;;;;;;5037882;28;20465;-78
2023/08/23 06:51:04;;;;;;;109.60;2.70;;;27.20;38.80;;;;;;5038133;28;20673;-77
2023/08/23 06:53:31;;;;;;;110.17;3.40;;;26.50;40.30;;;;;;5038088;28;20182;-77
2023/08/23 06:55:57;;;;;;;110.90;3.97;;;26.60;41.10;;;;;;5037243;28;20227;-78
2023/08/23 06:58:22;;;;;;;109.37;3.17;;;26.80;41.50;;;;;;5036658;28;20490;-77
2023/08/23 07:00:48;;;;;;;109.53;3.10;;;27.10;40.30;;;;;;5037959;28;20251;-78
2023/08/23 07:03:13;;;;;;;110.40;3.00;;;27.10;39.90;;;;;;5037891;28;20176;-77
2023/08/23 07:05:39;;;;;;;109.40;2.87;;;27.20;39.50;;;;;;5037787;28;20188;-78
2023/08/23 07:08:05;;;;;;;109.87;3.40;;;27.40;39.10;;;;;;5038072;28;20172;-78
2023/08/23 07:10:31;;;;;;;111.97;3.90;;;27.50;37.70;;;;;;5037844;28;20548;-78
2023/08/23 07:12:56;;;;;;;110.57;3.60;;;27.70;37.30;;;;;;5037958;28;20249;-78
2023/08/23 07:15:23;;;;;;;110.07;3.40;;;27.90;35.30;;;;;;5036813;28;20197;-78
2023/08/23 07:17:49;;;;;;;109.17;2.97;;;27.80;36.50;;;;;;5032840;28;20204;-78
2023/08/23 07:20:15;;;;;;;109.90;3.10;;;27.00;38.10;;;;;;5034659;28;20410;-78
2023/08/23 07:22:41;;;;;;;111.07;3.43;;;26.50;40.40;;;;;;5034560;28;20411;-77
2023/08/23 07:25:07;;;;;;;110.30;3.73;;;26.60;39.10;;;;;;5033986;28;20446;-78
2023/08/23 07:27:33;;;;;;;110.20;3.57;;;26.60;39.10;;;;;;5034500;28;20410;-78
2023/08/23 07:29:59;;;;;;;109.27;3.27;;;26.30;39.80;;;;;;5034413;28;20877;-77
2023/08/23 07:32:30;;;;;;;109.33;3.10;;;26.10;40.70;;;;;;5034314;28;20663;-77
2023/08/23 07:34:56;;;;;;;109.33;3.13;;;26.50;40.90;;;;;;5033950;28;20449;-77
2023/08/23 07:37:22;;;;;;;109.10;3.20;;;26.00;41.50;;;;;;5034086;28;20440;-78
2023/08/23 07:39:48;;;;;;;109.27;3.00;;;25.60;43.00;;;;;;5034425;28;20438;-78
2023/08/23 07:42:14;;;;;;;110.20;3.70;;;25.90;42.80;;;;;;5034069;28;20906;-78
2023/08/23 07:44:39;;;;;;;109.80;3.40;;;26.40;40.70;;;;;;5034058;28;20631;-78
2023/08/23 07:47:05;;;;;;;109.07;3.17;;;26.80;40.20;;;;;;5033925;28;20204;-77
2023/08/23 07:49:30;;;;;;;110.07;3.50;;;26.30;41.10;;;;;;5034055;28;20168;-78
2023/08/23 07:51:57;;;;;;;108.97;3.20;;;25.80;42.00;;;;;;5034213;28;20169;-78
2023/08/23 07:54:22;;;;;;;111.77;3.40;;;26.20;41.20;;;;;;5033993;28;20209;-78
2023/08/23 07:56:48;;;;;;;112.07;3.60;;;27.00;38.00;;;;;;5033320;28;20431;-78
2023/08/23 07:59:13;;;;;;;108.87;2.93;;;27.40;37.10;;;;;;5033784;28;20585;-77
2023/08/23 08:01:39;;;;;;;108.77;3.20;;;27.80;36.80;;;;;;5033689;28;20696;-77
2023/08/23 08:04:04;;;;;;;109.67;3.30;;;27.10;38.40;;;;;;5033695;28;20176;-78
2023/08/23 08:06:30;;;;;;;109.57;3.50;;;26.40;40.60;;;;;;5033373;28;20197;-77
2023/08/23 08:08:55;;;;;;;109.80;3.20;;;27.00;40.20;;;;;;5033640;28;20180;-77
2023/08/23 08:11:21;;;;;;;108.57;2.83;;;27.30;37.90;;;;;;5015914;28;20215;-78
2023/08/23 08:13:47;;;;;;;109.07;3.03;;;27.20;38.50;;;;;;5033792;28;20183;-78
2023/08/23 08:16:14;;;;;;;108.93;3.13;;;27.80;38.00;;;;;;5033068;28;20250;-78
2023/08/23 08:18:40;;;;;;;109.97;3.47;;;27.90;39.60;;;;;;5033549;28;20200;-78
2023/08/23 08:21:06;;;;;;;109.37;3.40;;;28.00;36.50;;;;;;5033295;28;20490;-78
2023/08/23 08:23:32;;;;;;;108.77;3.00;;;27.80;37.30;;;;;;5033282;28;20438;-78
2023/08/23 08:25:58;;;;;;;110.63;3.73;;;27.60;37.70;;;;;;5032675;28;20538;-77
2023/08/23 08:28:24;;;;;;;109.20;3.20;;;27.50;38.60;;;;;;5035599;28;20177;-78
2023/08/23 08:30:50;;;;;;;108.97;3.33;;;28.20;37.50;;;;;;5046003;28;20479;-78
2023/08/23 08:33:16;;;;;;;109.23;3.37;;;28.30;35.80;;;;;;5046959;28;20403;-78
2023/08/23 08:35:43;;;;;;;110.47;3.97;;;28.80;35.10;;;;;;5048714;28;20191;-78
2023/08/23 08:38:08;;;;;;;109.07;3.30;;;29.10;33.30;;;;;;5042772;28;20443;-77
2023/08/23 08:40:36;;;;;;;109.70;3.17;;;28.80;33.10;;;;;;5034747;28;20433;-78
2023/08/23 08:43:02;;;;;;;108.87;3.00;;;28.50;35.50;;;;;;5033490;28;20165;-78
2023/08/23 08:45:28;;;;;;;109.27;3.40;;;28.90;35.00;;;;;;5033187;28;20801;-78
2023/08/23 08:47:53;;;;;;;108.70;3.10;;;29.10;35.50;;;;;;5033531;28;20684;-78
2023/08/23 08:50:20;;;;;;;107.97;2.77;;;29.30;34.10;;;;;;5033620;28;20168;-77
2023/08/23 08:52:58;;;;;;;109.10;3.40;;;29.60;32.40;;;;;;5032985;28;20172;-77
2023/08/23 08:55:24;;;;;;;107.97;2.90;;;28.50;33.30;;;;;;5032334;28;20431;-77
2023/08/23 08:57:53;;;;;;;109.10;3.10;;;28.00;35.10;;;;;;5032898;28;20858;-77
2023/08/23 09:00:24;;;;;;;108.20;3.10;;;28.70;36.10;;;;;;5015383;28;20429;-78
2023/08/23 09:02:54;;;;;;;108.10;2.83;;;29.30;33.00;;;;;;5033337;28;20465;-78
2023/08/23 09:05:21;;;;;;;108.27;2.97;;;29.20;32.90;;;;;;5026258;28;20961;-78
2023/08/23 09:07:47;;;;;;;108.97;3.23;;;28.90;32.70;;;;;;5032825;28;20509;-78
2023/08/23 09:10:14;;;;;;;108.67;2.90;;;28.40;33.10;;;;;;5035554;28;20411;-78
2023/08/23 09:12:39;;;;;;;109.07;3.33;;;28.10;33.50;;;;;;5041933;28;20453;-78
2023/08/23 09:15:05;;;;;;;107.63;2.70;;;28.40;33.60;;;;;;5043899;28;20778;-78
2023/08/23 09:17:33;;;;;;;108.13;2.90;;;28.30;33.10;;;;;;5045868;28;20174;-78
2023/08/23 09:19:59;;;;;;;107.80;3.07;;;28.50;32.60;;;;;;5034724;28;20412;-78
2023/08/23 09:22:25;;;;;;;107.87;3.03;;;28.50;32.10;;;;;;5036419;28;20422;-78
2023/08/23 09:24:51;;;;;;;107.47;2.90;;;28.10;32.70;;;;;;5033956;28;20447;-78
2023/08/23 09:27:20;;;;;;;107.67;2.90;;;28.60;32.30;;;;;;5032558;28;20168;-78
2023/08/23 09:29:46;;;;;;;107.37;2.70;;;29.10;31.50;;;;;;5032241;28;20413;-78
2023/08/23 09:32:11;;;;;;;108.30;3.20;;;29.00;32.10;;;;;;5032133;28;20403;-78
2023/08/23 09:34:37;;;;;;;107.63;2.93;;;29.50;32.50;;;;;;5031936;28;20660;-78
2023/08/23 09:37:08;;;;;;;108.40;3.37;;;29.90;31.20;;;;;;5032010;28;20173;-78
2023/08/23 09:39:34;;;;;;;107.57;2.70;;;30.50;29.50;;;;;;5031379;28;20204;-77
2023/08/23 09:42:05;;;;;;;107.60;3.10;;;30.50;31.10;;;;;;5031791;28;20418;-78
2023/08/23 09:44:39;;;;;;;107.30;2.83;;;30.40;30.30;;;;;;5032036;28;20403;-78
2023/08/23 09:47:08;;;;;;;107.37;3.03;;;30.90;30.00;;;;;;5031927;28;20399;-78
2023/08/23 09:49:34;;;;;;;107.70;3.03;;;31.10;29.40;;;;;;5031823;28;20930;-77
2023/08/23 09:52:01;;;;;;;106.77;2.50;;;31.10;28.60;;;;;;5031796;28;20407;-78
2023/08/23 09:54:39;;;;;;;107.33;2.80;;;30.80;28.50;;;;;;5031528;28;20426;-77
2023/08/23 09:57:05;;;;;;;106.50;2.60;;;30.40;29.20;;;;;;5031974;28;20415;-78
2023/08/23 09:59:32;;;;;;;107.67;3.23;;;30.40;29.70;;;;;;5032298;28;20458;-78
2023/08/23 10:01:59;;;;;;;107.20;2.80;;;30.90;31.10;;;;;;5031944;28;20929;-78
2023/08/23 10:04:26;;;;;;;106.80;2.90;;;31.00;30.60;;;;;;5031919;28;20487;-77
2023/08/23 10:06:52;;;;;;;107.10;2.97;;;31.00;29.40;;;;;;5032227;28;20419;-78
2023/08/23 10:09:20;;;;;;;106.77;2.87;;;31.10;28.00;;;;;;5032693;28;20744;-78
2023/08/23 10:11:47;;;;;;;107.07;2.87;;;30.70;28.70;;;;;;5034490;28;20422;-79
2023/08/23 10:14:13;;;;;;;106.67;3.00;;;31.10;28.00;;;;;;5047099;28;20430;-79
2023/08/23 10:16:39;;;;;;;107.83;3.23;;;31.10;27.40;;;;;;5045052;28;20965;-78
2023/08/23 10:19:05;;;;;;;106.67;2.97;;;31.00;27.60;;;;;;5045531;28;20450;-78
2023/08/23 10:21:31;;;;;;;106.67;2.90;;;31.30;27.30;;;;;;5033194;28;20408;-78
2023/08/23 10:23:57;;;;;;;108.03;3.40;;;31.00;27.80;;;;;;5031998;28;20403;-77
2023/08/23 10:26:22;;;;;;;106.07;2.67;;;30.50;27.80;;;;;;5031092;28;20216;-78
2023/08/23 10:28:53;;;;;;;106.07;2.67;;;30.50;27.40;;;;;;5031957;28;20168;-78
2023/08/23 10:31:25;;;;;;;107.17;3.27;;;30.50;28.10;;;;;;5031908;28;20184;-78
2023/08/23 10:33:58;;;;;;;106.43;2.80;;;30.80;27.00;;;;;;5031898;28;20411;-78
2023/08/23 10:36:27;;;;;;;107.87;3.10;;;30.40;27.80;;;;;;5031374;28;20482;-78
2023/08/23 10:38:56;;;;;;;106.87;2.77;;;31.00;27.80;;;;;;5031621;28;20462;-78
2023/08/23 10:41:24;;;;;;;107.30;2.70;;;31.40;27.40;;;;;;5031649;28;20411;-78
2023/08/23 10:43:51;;;;;;;106.17;2.73;;;30.90;26.50;;;;;;5031396;28;20442;-78
2023/08/23 10:46:20;;;;;;;106.40;2.73;;;30.80;27.20;;;;;;5031086;28;20431;-78
2023/08/23 10:48:47;;;;;;;106.13;2.87;;;30.50;28.00;;;;;;5031727;28;20884;-77
2023/08/23 10:51:14;;;;;;;106.53;2.70;;;30.20;28.40;;;;;;5033479;28;20489;-78
2023/08/23 10:53:43;;;;;;;107.30;2.80;;;30.80;28.40;;;;;;5035731;28;20488;-78
2023/08/23 10:56:10;;;;;;;106.93;3.10;;;31.50;29.30;;;;;;5035069;28;20460;-77
2023/08/23 10:58:36;;;;;;;107.80;3.30;;;31.20;26.70;;;;;;5039050;28;20465;-78
2023/08/23 11:01:02;;;;;;;106.00;2.90;;;30.30;28.60;;;;;;5034936;28;20434;-78
2023/08/23 11:03:32;;;;;;;106.37;2.80;;;31.10;28.20;;;;;;5034924;28;20438;-78
2023/08/23 11:05:58;;;;;;;106.10;2.60;;;31.70;28.10;;;;;;5034594;28;20200;-78
2023/08/23 11:08:24;;;;;;;107.20;3.30;;;31.90;27.40;;;;;;5035128;28;20506;-77
2023/08/23 11:10:50;;;;;;;106.47;2.97;;;32.20;26.30;;;;;;5034784;28;20493;-78
2023/08/23 11:13:15;;;;;;;106.97;3.13;;;31.50;26.40;;;;;;5034507;28;20176;-78
2023/08/23 11:15:42;;;;;;;106.83;3.03;;;31.50;28.00;;;;;;5034471;28;20608;-77
2023/08/23 11:18:08;;;;;;;110.47;2.67;;;31.70;28.00;;;;;;5035141;28;20266;-78
2023/08/23 11:20:34;;;;;;;106.37;3.03;;;32.40;27.60;;;;;;5035646;28;20902;-78
2023/08/23 11:23:00;;;;;;;106.27;2.73;;;32.10;26.40;;;;;;5034813;28;20204;-78
2023/08/23 11:25:25;;;;;;;106.40;2.80;;;32.10;26.60;;;;;;5033742;28;20211;-78
2023/08/23 11:27:51;;;;;;;106.57;3.20;;;31.50;27.80;;;;;;5034506;28;20176;-78
2023/08/23 11:30:21;;;;;;;106.40;3.00;;;31.60;27.40;;;;;;5034800;28;20330;-78
2023/08/23 11:32:47;;;;;;;105.87;2.63;;;32.60;27.90;;;;;;5034718;28;20430;-78
2023/08/23 11:35:13;;;;;;;106.17;2.90;;;32.90;27.10;;;;;;5034271;28;20462;-78
2023/08/23 11:37:38;;;;;;;105.70;2.60;;;33.40;25.70;;;;;;5034708;28;20227;-78
2023/08/23 11:40:10;;;;;;;105.77;2.40;;;33.70;25.80;;;;;;5035027;28;20172;-78
2023/08/23 11:42:36;;;;;;;105.87;2.83;;;34.60;24.70;;;;;;5016847;28;20556;-78
2023/08/23 11:45:04;;;;;;;105.47;2.77;;;34.10;23.00;;;;;;5034046;28;20926;-78
2023/08/23 11:47:30;;;;;;;105.97;2.63;;;33.60;25.00;;;;;;5016955;28;20414;-78
2023/08/23 11:49:56;;;;;;;106.30;2.90;;;34.50;23.50;;;;;;5033928;28;20407;-78
2023/08/23 11:52:22;;;;;;;105.07;2.47;;;33.40;24.40;;;;;;5034079;28;20498;-78
2023/08/23 11:54:51;;;;;;;105.10;2.73;;;32.50;25.30;;;;;;5033544;28;20558;-78
2023/08/23 11:57:20;;;;;;;105.33;2.90;;;32.40;26.10;;;;;;5016112;28;20208;-78
2023/08/23 11:59:46;;;;;;;104.67;2.63;;;33.40;24.00;;;;;;5034944;28;20441;-78
2023/08/23 12:02:12;;;;;;;104.73;2.60;;;34.10;25.40;;;;;;5034230;28;20803;-78
2023/08/23 12:04:42;;;;;;;104.27;2.53;;;34.90;23.10;;;;;;5035549;28;20418;-78
2023/08/23 12:07:12;;;;;;;103.50;2.37;;;35.70;21.50;;;;;;5034715;28;20165;-78
2023/08/23 12:09:39;;;;;;;103.87;2.47;;;35.00;22.60;;;;;;5034611;28;20418;-78
2023/08/23 12:12:05;;;;;;;103.43;2.37;;;36.00;23.00;;;;;;5034734;28;20415;-78
2023/08/23 12:14:31;;;;;;;104.93;3.20;;;36.20;22.00;;;;;;5035313;28;20411;-78
2023/08/23 12:16:57;;;;;;;103.97;2.60;;;35.80;20.60;;;;;;5034061;28;20403;-78
2023/08/23 12:19:22;;;;;;;102.87;2.20;;;34.00;22.00;;;;;;5033596;28;20200;-78
2023/08/23 12:21:49;;;;;;;106.80;2.50;;;33.90;23.50;;;;;;5033968;28;20168;-78
2023/08/23 12:24:16;;;;;;;103.73;2.70;;;35.00;22.70;;;;;;5034064;28;20563;-78